sensor_id;sensor_type;location;lat;lon;timestamp;pressure;altitude;pressure_sealevel;temperature;humidity
50310;BME280;36207;51.850;21.698;2023-04-07T00:02:10;99679.38;;;6.13;77.85
50310;BME280;36207;51.850;21.698;2023-04-07T00:04:37;99676.92;;;6.16;77.78
50310;BME280;36207;51.850;21.698;2023-04-07T00:07:03;99671.34;;;6.17;77.93
50310;BME280;36207;51.850;21.698;2023-04-07T00:09:29;99674.56;;;6.17;77.70
50310;BME280;36207;51.850;21.698;2023-04-07T00:11:55;99671.77;;;6.16;77.64
50310;BME280;36207;51.850;21.698;2023-04-07T00:14:21;99668.07;;;6.18;77.66
50310;BME280;36207;51.850;21.698;2023-04-07T00:16:47;99664.54;;;6.20;77.79
50310;BME280;36207;51.850;21.698;2023-04-07T00:19:13;99664.88;;;6.21;77.81
50310;BME280;36207;51.850;21.698;2023-04-07T00:21:39;99665.45;;;6.21;77.75
50310;BME280;36207;51.850;21.698;2023-04-07T00:24:05;99662.18;;;6.20;77.79
50310;BME280;36207;51.850;21.698;2023-04-07T00:26:32;99666.16;;;6.21;77.83
50310;BME280;36207;51.850;21.698;2023-04-07T00:28:58;99662.48;;;6.22;77.83
50310;BME280;36207;51.850;21.698;2023-04-07T00:31:24;99659.05;;;6.26;77.95
50310;BME280;36207;51.850;21.698;2023-04-07T00:33:50;99666.66;;;6.30;78.05
50310;BME280;36207;51.850;21.698;2023-04-07T00:36:16;99658.89;;;6.32;78.07
50310;BME280;36207;51.850;21.698;2023-04-07T00:38:42;99661.34;;;6.33;77.99
50310;BME280;36207;51.850;21.698;2023-04-07T00:41:08;99664.42;;;6.34;77.94
50310;BME280;36207;51.850;21.698;2023-04-07T00:43:35;99664.23;;;6.36;78.17
50310;BME280;36207;51.850;21.698;2023-04-07T00:46:01;99663.40;;;6.41;78.19
50310;BME280;36207;51.850;21.698;2023-04-07T00:48:27;99660.73;;;6.42;78.04
50310;BME280;36207;51.850;21.698;2023-04-07T00:50:53;99660.96;;;6.42;78.02
50310;BME280;36207;51.850;21.698;2023-04-07T00:53:19;99663.63;;;6.42;78.14
50310;BME280;36207;51.850;21.698;2023-04-07T00:55:45;99661.80;;;6.44;77.96
50310;BME280;36207;51.850;21.698;2023-04-07T00:58:11;99664.50;;;6.47;78.12
50310;BME280;36207;51.850;21.698;2023-04-07T01:00:46;99658.83;;;6.47;78.07
50310;BME280;36207;51.850;21.698;2023-04-07T01:03:29;99656.27;;;6.49;78.19
50310;BME280;36207;51.850;21.698;2023-04-07T01:06:00;99651.70;;;6.51;78.18
50310;BME280;36207;51.850;21.698;2023-04-07T01:11:07;99648.47;;;6.53;78.34
50310;BME280;36207;51.850;21.698;2023-04-07T01:13:35;99647.20;;;6.57;78.17
50310;BME280;36207;51.850;21.698;2023-04-07T01:16:05;99644.52;;;6.58;78.24
50310;BME280;36207;51.850;21.698;2023-04-07T01:18:35;99646.59;;;6.58;78.24
50310;BME280;36207;51.850;21.698;2023-04-07T01:21:08;99647.20;;;6.57;78.04
50310;BME280;36207;51.850;21.698;2023-04-07T01:26:27;99644.20;;;6.60;78.31
50310;BME280;36207;51.850;21.698;2023-04-07T01:29:27;99643.17;;;6.61;78.29
50310;BME280;36207;51.850;21.698;2023-04-07T01:31:57;99646.33;;;6.65;78.49
50310;BME280;36207;51.850;21.698;2023-04-07T01:34:26;99647.20;;;6.66;78.44
50310;BME280;36207;51.850;21.698;2023-04-07T01:36:55;99646.28;;;6.68;78.39
50310;BME280;36207;51.850;21.698;2023-04-07T01:39:25;99646.38;;;6.73;78.36
50310;BME280;36207;51.850;21.698;2023-04-07T01:41:52;99648.45;;;6.77;78.46
50310;BME280;36207;51.850;21.698;2023-04-07T01:44:19;99649.65;;;6.79;78.50
50310;BME280;36207;51.850;21.698;2023-04-07T01:46:46;99647.77;;;6.78;78.55
50310;BME280;36207;51.850;21.698;2023-04-07T01:49:13;99647.20;;;6.79;78.48
50310;BME280;36207;51.850;21.698;2023-04-07T01:51:40;99648.39;;;6.80;78.35
50310;BME280;36207;51.850;21.698;2023-04-07T01:54:07;99643.67;;;6.81;78.47
50310;BME280;36207;51.850;21.698;2023-04-07T01:56:33;99640.88;;;6.81;78.39
50310;BME280;36207;51.850;21.698;2023-04-07T01:58:59;99639.96;;;6.80;78.38
50310;BME280;36207;51.850;21.698;2023-04-07T02:01:25;99639.40;;;6.79;78.55
50310;BME280;36207;51.850;21.698;2023-04-07T02:03:55;99636.88;;;6.79;78.44
50310;BME280;36207;51.850;21.698;2023-04-07T02:06:29;99636.44;;;6.80;78.56
50310;BME280;36207;51.850;21.698;2023-04-07T02:09:06;99632.69;;;6.80;78.40
50310;BME280;36207;51.850;21.698;2023-04-07T02:11:33;99632.83;;;6.82;78.55
50310;BME280;36207;51.850;21.698;2023-04-07T02:14:03;99631.67;;;6.83;78.49
50310;BME280;36207;51.850;21.698;2023-04-07T02:16:31;99628.13;;;6.83;78.56
50310;BME280;36207;51.850;21.698;2023-04-07T02:18:58;99633.14;;;6.83;78.41
50310;BME280;36207;51.850;21.698;2023-04-07T02:21:25;99633.53;;;6.84;78.46
50310;BME280;36207;51.850;21.698;2023-04-07T02:23:52;99631.45;;;6.85;78.41
50310;BME280;36207;51.850;21.698;2023-04-07T02:26:18;99632.80;;;6.87;78.40
50310;BME280;36207;51.850;21.698;2023-04-07T02:28:44;99628.31;;;6.88;78.59
50310;BME280;36207;51.850;21.698;2023-04-07T02:31:10;99630.88;;;6.89;78.56
50310;BME280;36207;51.850;21.698;2023-04-07T02:33:38;99633.23;;;6.90;78.62
50310;BME280;36207;51.850;21.698;2023-04-07T02:36:04;99630.02;;;6.92;78.65
50310;BME280;36207;51.850;21.698;2023-04-07T02:38:31;99632.14;;;6.93;78.58
50310;BME280;36207;51.850;21.698;2023-04-07T02:40:57;99634.95;;;6.94;78.58
50310;BME280;36207;51.850;21.698;2023-04-07T02:43:24;99633.67;;;6.94;78.51
50310;BME280;36207;51.850;21.698;2023-04-07T02:45:50;99634.40;;;6.94;78.44
50310;BME280;36207;51.850;21.698;2023-04-07T02:48:16;99633.26;;;6.93;78.35
50310;BME280;36207;51.850;21.698;2023-04-07T02:50:42;99632.84;;;6.93;78.63
50310;BME280;36207;51.850;21.698;2023-04-07T02:53:08;99633.40;;;6.95;78.62
50310;BME280;36207;51.850;21.698;2023-04-07T02:55:34;99636.33;;;6.97;78.72
50310;BME280;36207;51.850;21.698;2023-04-07T02:58:00;99636.06;;;6.98;78.64
50310;BME280;36207;51.850;21.698;2023-04-07T03:00:26;99638.23;;;6.98;78.62
50310;BME280;36207;51.850;21.698;2023-04-07T03:02:52;99639.61;;;7.00;78.54
50310;BME280;36207;51.850;21.698;2023-04-07T03:05:18;99642.71;;;7.02;78.66
50310;BME280;36207;51.850;21.698;2023-04-07T03:07:44;99637.96;;;7.03;78.75
50310;BME280;36207;51.850;21.698;2023-04-07T03:10:11;99643.35;;;7.04;78.74
50310;BME280;36207;51.850;21.698;2023-04-07T03:12:36;99635.94;;;7.03;78.74
50310;BME280;36207;51.850;21.698;2023-04-07T03:15:02;99636.39;;;7.02;78.66
50310;BME280;36207;51.850;21.698;2023-04-07T03:17:28;99637.09;;;7.04;78.72
50310;BME280;36207;51.850;21.698;2023-04-07T03:19:55;99637.63;;;7.05;78.89
50310;BME280;36207;51.850;21.698;2023-04-07T03:22:21;99643.08;;;7.08;78.93
50310;BME280;36207;51.850;21.698;2023-04-07T03:24:47;99643.16;;;7.09;78.88
50310;BME280;36207;51.850;21.698;2023-04-07T03:27:13;99645.21;;;7.10;78.83
50310;BME280;36207;51.850;21.698;2023-04-07T03:29:39;99642.36;;;7.10;78.71
50310;BME280;36207;51.850;21.698;2023-04-07T03:32:05;99645.30;;;7.11;78.93
50310;BME280;36207;51.850;21.698;2023-04-07T03:34:31;99646.65;;;7.13;78.85
50310;BME280;36207;51.850;21.698;2023-04-07T03:36:57;99649.52;;;7.14;78.92
50310;BME280;36207;51.850;21.698;2023-04-07T03:39:23;99642.61;;;7.16;79.00
50310;BME280;36207;51.850;21.698;2023-04-07T03:41:49;99639.85;;;7.17;78.96
50310;BME280;36207;51.850;21.698;2023-04-07T03:44:16;99641.17;;;7.20;78.83
50310;BME280;36207;51.850;21.698;2023-04-07T03:46:42;99641.80;;;7.21;79.00
50310;BME280;36207;51.850;21.698;2023-04-07T03:49:10;99639.18;;;7.23;79.17
50310;BME280;36207;51.850;21.698;2023-04-07T03:51:39;99641.74;;;7.24;79.06
50310;BME280;36207;51.850;21.698;2023-04-07T03:54:05;99642.08;;;7.21;78.86
50310;BME280;36207;51.850;21.698;2023-04-07T03:56:31;99643.10;;;7.18;78.85
50310;BME280;36207;51.850;21.698;2023-04-07T03:58:57;99645.88;;;7.20;79.10
50310;BME280;36207;51.850;21.698;2023-04-07T04:01:23;99641.98;;;7.24;79.22
50310;BME280;36207;51.850;21.698;2023-04-07T04:03:49;99645.77;;;7.25;79.16
50310;BME280;36207;51.850;21.698;2023-04-07T04:06:15;99647.22;;;7.28;79.31
50310;BME280;36207;51.850;21.698;2023-04-07T04:08:41;99642.33;;;7.27;79.23
50310;BME280;36207;51.850;21.698;2023-04-07T04:11:07;99644.69;;;7.28;79.25
50310;BME280;36207;51.850;21.698;2023-04-07T04:13:33;99646.73;;;7.30;79.34
50310;BME280;36207;51.850;21.698;2023-04-07T04:15:59;99643.16;;;7.32;79.31
50310;BME280;36207;51.850;21.698;2023-04-07T04:18:25;99643.23;;;7.31;79.12
50310;BME280;36207;51.850;21.698;2023-04-07T04:20:51;99645.33;;;7.30;79.07
50310;BME280;36207;51.850;21.698;2023-04-07T04:23:17;99651.09;;;7.29;79.02
50310;BME280;36207;51.850;21.698;2023-04-07T04:25:43;99648.64;;;7.31;79.14
50310;BME280;36207;51.850;21.698;2023-04-07T04:28:08;99655.05;;;7.35;79.20
50310;BME280;36207;51.850;21.698;2023-04-07T04:30:38;99655.14;;;7.38;79.30
50310;BME280;36207;51.850;21.698;2023-04-07T04:33:04;99654.71;;;7.40;79.44
50310;BME280;36207;51.850;21.698;2023-04-07T04:35:29;99652.36;;;7.41;79.39
50310;BME280;36207;51.850;21.698;2023-04-07T04:37:55;99653.55;;;7.43;79.27
50310;BME280;36207;51.850;21.698;2023-04-07T04:40:21;99653.91;;;7.46;79.41
50310;BME280;36207;51.850;21.698;2023-04-07T04:42:47;99652.48;;;7.48;79.44
50310;BME280;36207;51.850;21.698;2023-04-07T04:45:13;99652.14;;;7.51;79.43
50310;BME280;36207;51.850;21.698;2023-04-07T04:47:39;99655.60;;;7.51;79.49
50310;BME280;36207;51.850;21.698;2023-04-07T04:50:06;99659.25;;;7.52;79.46
50310;BME280;36207;51.850;21.698;2023-04-07T04:52:32;99655.09;;;7.54;79.41
50310;BME280;36207;51.850;21.698;2023-04-07T04:54:59;99655.55;;;7.60;79.46
50310;BME280;36207;51.850;21.698;2023-04-07T04:57:25;99655.25;;;7.65;79.48
50310;BME280;36207;51.850;21.698;2023-04-07T04:59:51;99657.23;;;7.66;79.53
50310;BME280;36207;51.850;21.698;2023-04-07T05:02:19;99655.61;;;7.66;79.39
50310;BME280;36207;51.850;21.698;2023-04-07T05:04:46;99652.12;;;7.67;79.51
50310;BME280;36207;51.850;21.698;2023-04-07T05:07:12;99658.91;;;7.70;79.51
50310;BME280;36207;51.850;21.698;2023-04-07T05:09:38;99654.73;;;7.72;79.54
50310;BME280;36207;51.850;21.698;2023-04-07T05:12:04;99659.30;;;7.77;79.59
50310;BME280;36207;51.850;21.698;2023-04-07T05:14:31;99655.51;;;7.81;79.76
50310;BME280;36207;51.850;21.698;2023-04-07T05:16:56;99656.50;;;7.82;79.73
50310;BME280;36207;51.850;21.698;2023-04-07T05:19:22;99658.23;;;7.84;79.69
50310;BME280;36207;51.850;21.698;2023-04-07T05:21:48;99657.41;;;7.88;79.62
50310;BME280;36207;51.850;21.698;2023-04-07T05:24:14;99653.02;;;7.92;79.87
50310;BME280;36207;51.850;21.698;2023-04-07T05:26:40;99652.45;;;7.96;79.78
50310;BME280;36207;51.850;21.698;2023-04-07T05:29:06;99653.81;;;7.96;79.65
50310;BME280;36207;51.850;21.698;2023-04-07T05:31:34;99652.41;;;7.94;79.73
50310;BME280;36207;51.850;21.698;2023-04-07T05:34:05;99653.31;;;7.96;79.79
50310;BME280;36207;51.850;21.698;2023-04-07T05:36:30;99652.77;;;7.99;79.83
50310;BME280;36207;51.850;21.698;2023-04-07T05:38:56;99655.55;;;8.03;80.04
50310;BME280;36207;51.850;21.698;2023-04-07T05:41:22;99658.20;;;8.06;79.94
50310;BME280;36207;51.850;21.698;2023-04-07T05:43:48;99653.73;;;8.08;80.06
50310;BME280;36207;51.850;21.698;2023-04-07T05:46:14;99652.97;;;8.09;80.13
50310;BME280;36207;51.850;21.698;2023-04-07T05:48:40;99655.32;;;8.12;80.24
50310;BME280;36207;51.850;21.698;2023-04-07T05:51:06;99657.80;;;8.15;80.12
50310;BME280;36207;51.850;21.698;2023-04-07T05:53:32;99654.30;;;8.16;80.19
50310;BME280;36207;51.850;21.698;2023-04-07T05:55:58;99656.63;;;8.14;80.09
50310;BME280;36207;51.850;21.698;2023-04-07T05:58:24;99656.93;;;8.13;80.00
50310;BME280;36207;51.850;21.698;2023-04-07T06:00:50;99654.94;;;8.15;80.25
50310;BME280;36207;51.850;21.698;2023-04-07T06:03:16;99652.77;;;8.18;80.25
50310;BME280;36207;51.850;21.698;2023-04-07T06:05:45;99655.73;;;8.24;80.27
50310;BME280;36207;51.850;21.698;2023-04-07T06:08:11;99659.95;;;8.27;80.17
50310;BME280;36207;51.850;21.698;2023-04-07T06:10:37;99660.20;;;8.30;80.17
50310;BME280;36207;51.850;21.698;2023-04-07T06:13:06;99655.42;;;8.33;80.34
50310;BME280;36207;51.850;21.698;2023-04-07T06:15:32;99656.48;;;8.38;80.43
50310;BME280;36207;51.850;21.698;2023-04-07T06:17:58;99656.64;;;8.41;80.36
50310;BME280;36207;51.850;21.698;2023-04-07T06:20:24;99662.83;;;8.44;80.45
50310;BME280;36207;51.850;21.698;2023-04-07T06:22:53;99663.40;;;8.45;80.53
50310;BME280;36207;51.850;21.698;2023-04-07T06:25:19;99663.58;;;8.47;80.52
50310;BME280;36207;51.850;21.698;2023-04-07T06:27:46;99660.79;;;8.51;80.55
50310;BME280;36207;51.850;21.698;2023-04-07T06:30:12;99663.56;;;8.55;80.50
50310;BME280;36207;51.850;21.698;2023-04-07T06:32:38;99665.55;;;8.58;80.52
50310;BME280;36207;51.850;21.698;2023-04-07T06:35:04;99665.64;;;8.60;80.52
50310;BME280;36207;51.850;21.698;2023-04-07T06:37:30;99664.00;;;8.61;80.71
50310;BME280;36207;51.850;21.698;2023-04-07T06:39:56;99665.40;;;8.61;80.52
50310;BME280;36207;51.850;21.698;2023-04-07T06:42:22;99661.91;;;8.63;80.47
50310;BME280;36207;51.850;21.698;2023-04-07T06:44:48;99665.03;;;8.66;80.52
50310;BME280;36207;51.850;21.698;2023-04-07T06:47:14;99660.61;;;8.67;80.58
50310;BME280;36207;51.850;21.698;2023-04-07T06:49:40;99663.05;;;8.69;80.58
50310;BME280;36207;51.850;21.698;2023-04-07T06:52:09;99661.36;;;8.73;80.64
50310;BME280;36207;51.850;21.698;2023-04-07T06:54:35;99664.21;;;8.80;80.61
50310;BME280;36207;51.850;21.698;2023-04-07T06:57:01;99661.73;;;8.88;80.93
50310;BME280;36207;51.850;21.698;2023-04-07T06:59:28;99663.38;;;8.92;80.95
50310;BME280;36207;51.850;21.698;2023-04-07T07:01:54;99664.77;;;8.99;81.01
50310;BME280;36207;51.850;21.698;2023-04-07T07:04:22;99661.55;;;9.05;81.02
50310;BME280;36207;51.850;21.698;2023-04-07T07:06:48;99659.06;;;9.11;81.15
50310;BME280;36207;51.850;21.698;2023-04-07T07:09:14;99658.18;;;9.14;81.03
50310;BME280;36207;51.850;21.698;2023-04-07T07:11:40;99660.34;;;9.18;80.88
50310;BME280;36207;51.850;21.698;2023-04-07T07:14:06;99662.16;;;9.21;80.95
50310;BME280;36207;51.850;21.698;2023-04-07T07:16:32;99662.24;;;9.24;80.92
50310;BME280;36207;51.850;21.698;2023-04-07T07:18:58;99659.64;;;9.27;80.79
50310;BME280;36207;51.850;21.698;2023-04-07T07:21:24;99662.35;;;9.33;81.07
50310;BME280;36207;51.850;21.698;2023-04-07T07:23:50;99662.83;;;9.40;81.05
50310;BME280;36207;51.850;21.698;2023-04-07T07:26:16;99664.56;;;9.45;81.03
50310;BME280;36207;51.850;21.698;2023-04-07T07:28:42;99663.66;;;9.48;80.92
50310;BME280;36207;51.850;21.698;2023-04-07T07:31:09;99669.91;;;9.51;80.96
50310;BME280;36207;51.850;21.698;2023-04-07T07:33:38;99670.90;;;9.54;81.13
50310;BME280;36207;51.850;21.698;2023-04-07T07:36:06;99670.74;;;9.60;81.01
50310;BME280;36207;51.850;21.698;2023-04-07T07:38:32;99676.08;;;9.66;81.09
50310;BME280;36207;51.850;21.698;2023-04-07T07:40:58;99674.71;;;9.72;81.13
50310;BME280;36207;51.850;21.698;2023-04-07T07:43:24;99671.69;;;9.76;81.18
50310;BME280;36207;51.850;21.698;2023-04-07T07:45:50;99671.70;;;9.83;81.13
50310;BME280;36207;51.850;21.698;2023-04-07T07:48:16;99673.66;;;9.91;81.24
50310;BME280;36207;51.850;21.698;2023-04-07T07:50:42;99674.70;;;9.97;81.32
50310;BME280;36207;51.850;21.698;2023-04-07T07:53:09;99676.46;;;10.02;81.34
50310;BME280;36207;51.850;21.698;2023-04-07T07:55:35;99674.92;;;10.07;81.22
50310;BME280;36207;51.850;21.698;2023-04-07T07:58:01;99677.35;;;10.13;81.23
50310;BME280;36207;51.850;21.698;2023-04-07T08:00:27;99677.13;;;10.18;81.21
50310;BME280;36207;51.850;21.698;2023-04-07T08:02:53;99679.27;;;10.21;81.12
50310;BME280;36207;51.850;21.698;2023-04-07T08:05:20;99681.43;;;10.24;81.19
50310;BME280;36207;51.850;21.698;2023-04-07T08:07:46;99683.13;;;10.24;81.06
50310;BME280;36207;51.850;21.698;2023-04-07T08:10:12;99680.56;;;10.25;80.84
50310;BME280;36207;51.850;21.698;2023-04-07T08:12:38;99682.00;;;10.30;81.01
50310;BME280;36207;51.850;21.698;2023-04-07T08:15:05;99679.66;;;10.33;81.33
50310;BME280;36207;51.850;21.698;2023-04-07T08:17:35;99683.23;;;10.37;81.34
50310;BME280;36207;51.850;21.698;2023-04-07T08:20:01;99682.46;;;10.38;81.25
50310;BME280;36207;51.850;21.698;2023-04-07T08:22:28;99679.45;;;10.41;81.24
50310;BME280;36207;51.850;21.698;2023-04-07T08:24:54;99682.73;;;10.46;81.43
50310;BME280;36207;51.850;21.698;2023-04-07T08:27:20;99684.08;;;10.52;81.32
50310;BME280;36207;51.850;21.698;2023-04-07T08:30:00;99684.35;;;10.57;81.34
50310;BME280;36207;51.850;21.698;2023-04-07T08:32:35;99686.56;;;10.64;81.30
50310;BME280;36207;51.850;21.698;2023-04-07T08:35:01;99687.40;;;10.69;81.31
50310;BME280;36207;51.850;21.698;2023-04-07T08:37:27;99686.58;;;10.73;81.29
50310;BME280;36207;51.850;21.698;2023-04-07T08:39:53;99690.06;;;10.79;81.32
50310;BME280;36207;51.850;21.698;2023-04-07T08:42:22;99689.69;;;10.82;81.26
50310;BME280;36207;51.850;21.698;2023-04-07T08:44:51;99694.44;;;10.84;81.19
50310;BME280;36207;51.850;21.698;2023-04-07T08:47:18;99691.73;;;10.84;81.14
50310;BME280;36207;51.850;21.698;2023-04-07T08:49:48;99692.88;;;10.85;81.13
50310;BME280;36207;51.850;21.698;2023-04-07T08:52:17;99695.95;;;10.86;81.21
50310;BME280;36207;51.850;21.698;2023-04-07T08:54:45;99694.44;;;10.87;81.18
50310;BME280;36207;51.850;21.698;2023-04-07T08:57:12;99691.89;;;10.87;81.04
50310;BME280;36207;51.850;21.698;2023-04-07T08:59:40;99694.19;;;10.88;80.86
50310;BME280;36207;51.850;21.698;2023-04-07T09:02:09;99694.39;;;10.87;81.22
50310;BME280;36207;51.850;21.698;2023-04-07T09:04:35;99694.85;;;10.88;81.10
50310;BME280;36207;51.850;21.698;2023-04-07T09:07:02;99694.52;;;10.91;81.21
50310;BME280;36207;51.850;21.698;2023-04-07T09:09:28;99697.36;;;10.92;81.11
50310;BME280;36207;51.850;21.698;2023-04-07T09:11:54;99696.86;;;10.92;81.01
50310;BME280;36207;51.850;21.698;2023-04-07T09:14:20;99697.53;;;10.94;81.05
50310;BME280;36207;51.850;21.698;2023-04-07T09:16:46;99695.02;;;10.93;81.04
50310;BME280;36207;51.850;21.698;2023-04-07T09:19:12;99699.81;;;10.94;80.95
50310;BME280;36207;51.850;21.698;2023-04-07T09:21:46;99698.16;;;10.94;81.01
50310;BME280;36207;51.850;21.698;2023-04-07T09:24:24;99695.80;;;10.93;80.90
50310;BME280;36207;51.850;21.698;2023-04-07T09:29:37;99692.67;;;10.97;80.99
50310;BME280;36207;51.850;21.698;2023-04-07T09:32:03;99696.35;;;11.02;81.11
50310;BME280;36207;51.850;21.698;2023-04-07T09:34:34;99693.85;;;11.06;81.08
50310;BME280;36207;51.850;21.698;2023-04-07T09:37:01;99695.52;;;11.08;81.08
50310;BME280;36207;51.850;21.698;2023-04-07T09:39:27;99695.94;;;11.10;81.02
50310;BME280;36207;51.850;21.698;2023-04-07T09:41:54;99697.11;;;11.13;81.07
50310;BME280;36207;51.850;21.698;2023-04-07T09:44:21;99697.27;;;11.14;81.18
50310;BME280;36207;51.850;21.698;2023-04-07T09:46:51;99698.55;;;11.15;81.24
50310;BME280;36207;51.850;21.698;2023-04-07T09:49:19;99698.52;;;11.17;81.17
50310;BME280;36207;51.850;21.698;2023-04-07T09:52:02;99704.09;;;11.20;81.03
50310;BME280;36207;51.850;21.698;2023-04-07T09:57:00;99700.41;;;11.26;81.07
50310;BME280;36207;51.850;21.698;2023-04-07T09:59:29;99702.38;;;11.30;81.37
50310;BME280;36207;51.850;21.698;2023-04-07T10:01:55;99706.48;;;11.28;81.29
50310;BME280;36207;51.850;21.698;2023-04-07T10:04:23;99704.21;;;11.28;81.19
50310;BME280;36207;51.850;21.698;2023-04-07T10:06:49;99706.37;;;11.30;81.29
50310;BME280;36207;51.850;21.698;2023-04-07T10:09:15;99706.65;;;11.33;81.39
50310;BME280;36207;51.850;21.698;2023-04-07T10:11:45;99711.23;;;11.40;81.33
50310;BME280;36207;51.850;21.698;2023-04-07T10:14:12;99709.92;;;11.42;81.36
50310;BME280;36207;51.850;21.698;2023-04-07T10:16:38;99710.73;;;11.39;81.41
50310;BME280;36207;51.850;21.698;2023-04-07T10:19:05;99717.14;;;11.38;81.02
50310;BME280;36207;51.850;21.698;2023-04-07T10:21:37;99714.64;;;11.38;81.17
50310;BME280;36207;51.850;21.698;2023-04-07T10:26:57;99713.64;;;11.39;81.23
50310;BME280;36207;51.850;21.698;2023-04-07T10:29:24;99716.00;;;11.39;81.04
50310;BME280;36207;51.850;21.698;2023-04-07T10:31:51;99717.72;;;11.38;81.21
50310;BME280;36207;51.850;21.698;2023-04-07T10:37:18;99717.90;;;11.40;81.06
50310;BME280;36207;51.850;21.698;2023-04-07T10:39:47;99720.88;;;11.38;81.23
50310;BME280;36207;51.850;21.698;2023-04-07T10:45:01;99723.45;;;11.39;81.14
50310;BME280;36207;51.850;21.698;2023-04-07T10:47:28;99727.23;;;11.41;81.11
50310;BME280;36207;51.850;21.698;2023-04-07T10:50:24;99731.73;;;11.41;81.00
50310;BME280;36207;51.850;21.698;2023-04-07T10:53:11;99736.96;;;11.38;81.36
50310;BME280;36207;51.850;21.698;2023-04-07T10:55:38;99750.54;;;11.22;80.91
50310;BME280;36207;51.850;21.698;2023-04-07T11:00:41;99765.11;;;10.68;80.66
50310;BME280;36207;51.850;21.698;2023-04-07T11:03:12;99771.34;;;10.50;80.91
50310;BME280;36207;51.850;21.698;2023-04-07T11:05:39;99774.90;;;10.39;81.11
50310;BME280;36207;51.850;21.698;2023-04-07T11:08:05;99779.44;;;10.27;80.87
50310;BME280;36207;51.850;21.698;2023-04-07T11:10:33;99790.85;;;10.12;81.30
50310;BME280;36207;51.850;21.698;2023-04-07T11:13:04;99790.17;;;9.97;81.04
50310;BME280;36207;51.850;21.698;2023-04-07T11:15:35;99793.48;;;9.94;81.31
50310;BME280;36207;51.850;21.698;2023-04-07T11:18:19;99792.05;;;9.88;81.24
50310;BME280;36207;51.850;21.698;2023-04-07T11:20:50;99790.36;;;9.86;81.16
50310;BME280;36207;51.850;21.698;2023-04-07T11:23:18;99792.00;;;9.85;81.24
50310;BME280;36207;51.850;21.698;2023-04-07T11:25:48;99791.45;;;9.86;81.73
50310;BME280;36207;51.850;21.698;2023-04-07T11:28:14;99789.81;;;9.84;81.49
50310;BME280;36207;51.850;21.698;2023-04-07T11:30:49;99792.45;;;9.88;81.75
50310;BME280;36207;51.850;21.698;2023-04-07T11:33:24;99796.02;;;9.94;81.79
50310;BME280;36207;51.850;21.698;2023-04-07T11:35:55;99800.10;;;10.01;81.70
50310;BME280;36207;51.850;21.698;2023-04-07T11:38:23;99801.77;;;10.13;81.85
50310;BME280;36207;51.850;21.698;2023-04-07T11:40:49;99804.00;;;10.24;82.01
50310;BME280;36207;51.850;21.698;2023-04-07T11:43:20;99809.27;;;10.35;81.82
50310;BME280;36207;51.850;21.698;2023-04-07T11:46:03;99803.43;;;10.43;81.54
50310;BME280;36207;51.850;21.698;2023-04-07T11:48:35;99807.48;;;10.50;81.50
50310;BME280;36207;51.850;21.698;2023-04-07T11:51:02;99811.08;;;10.55;81.38
50310;BME280;36207;51.850;21.698;2023-04-07T11:53:30;99811.95;;;10.59;81.31
50310;BME280;36207;51.850;21.698;2023-04-07T11:56:07;99814.24;;;10.64;81.34
50310;BME280;36207;51.850;21.698;2023-04-07T11:58:35;99810.47;;;10.64;81.30
50310;BME280;36207;51.850;21.698;2023-04-07T12:01:03;99811.15;;;10.66;81.25
50310;BME280;36207;51.850;21.698;2023-04-07T12:03:32;99812.06;;;10.70;81.20
50310;BME280;36207;51.850;21.698;2023-04-07T12:06:00;99809.46;;;10.69;81.06
50310;BME280;36207;51.850;21.698;2023-04-07T12:08:42;99806.35;;;10.69;81.23
50310;BME280;36207;51.850;21.698;2023-04-07T12:11:09;99813.04;;;10.75;81.55
50310;BME280;36207;51.850;21.698;2023-04-07T12:13:35;99811.17;;;10.79;81.45
50310;BME280;36207;51.850;21.698;2023-04-07T12:16:02;99813.36;;;10.83;80.96
50310;BME280;36207;51.850;21.698;2023-04-07T12:18:29;99816.72;;;10.77;80.46
50310;BME280;36207;51.850;21.698;2023-04-07T12:20:55;99815.62;;;10.68;80.30
50310;BME280;36207;51.850;21.698;2023-04-07T12:23:23;99818.55;;;10.60;80.37
50310;BME280;36207;51.850;21.698;2023-04-07T12:25:49;99822.63;;;10.52;79.88
50310;BME280;36207;51.850;21.698;2023-04-07T12:28:15;99832.27;;;10.41;80.02
50310;BME280;36207;51.850;21.698;2023-04-07T12:30:41;99834.10;;;10.35;79.97
50310;BME280;36207;51.850;21.698;2023-04-07T12:33:08;99835.80;;;10.27;79.79
50310;BME280;36207;51.850;21.698;2023-04-07T12:35:33;99844.13;;;10.20;79.85
50310;BME280;36207;51.850;21.698;2023-04-07T12:37:59;99844.70;;;10.12;79.89
50310;BME280;36207;51.850;21.698;2023-04-07T12:40:25;99857.38;;;10.04;80.11
50310;BME280;36207;51.850;21.698;2023-04-07T12:42:51;99867.30;;;9.91;80.40
50310;BME280;36207;51.850;21.698;2023-04-07T12:45:17;99877.50;;;9.64;79.97
50310;BME280;36207;51.850;21.698;2023-04-07T12:47:43;99874.04;;;9.46;79.72
50310;BME280;36207;51.850;21.698;2023-04-07T12:50:09;99878.92;;;9.30;79.95
50310;BME280;36207;51.850;21.698;2023-04-07T12:52:36;99880.30;;;9.15;80.05
50310;BME280;36207;51.850;21.698;2023-04-07T12:55:02;99877.85;;;9.08;80.35
50310;BME280;36207;51.850;21.698;2023-04-07T12:57:28;99881.73;;;9.05;80.56
50310;BME280;36207;51.850;21.698;2023-04-07T12:59:54;99885.14;;;9.08;80.50
50310;BME280;36207;51.850;21.698;2023-04-07T13:02:20;99892.11;;;9.06;80.42
50310;BME280;36207;51.850;21.698;2023-04-07T13:04:46;99891.44;;;9.01;80.26
50310;BME280;36207;51.850;21.698;2023-04-07T13:07:12;99885.24;;;9.01;80.30
50310;BME280;36207;51.850;21.698;2023-04-07T13:09:39;99891.56;;;9.03;80.52
50310;BME280;36207;51.850;21.698;2023-04-07T13:12:11;99893.40;;;9.07;80.43
50310;BME280;36207;51.850;21.698;2023-04-07T13:14:41;99896.35;;;9.11;80.83
50310;BME280;36207;51.850;21.698;2023-04-07T13:17:07;99897.59;;;9.13;80.49
50310;BME280;36207;51.850;21.698;2023-04-07T13:19:33;99898.70;;;9.17;80.06
50310;BME280;36207;51.850;21.698;2023-04-07T13:22:00;99898.29;;;9.19;80.10